createdAt,value
2022-11-17T00:02:11.485Z,10.30
2022-11-17T00:04:39.418Z,13.15
2022-11-17T00:07:07.250Z,11.07
2022-11-17T00:09:34.954Z,12.02
2022-11-17T00:12:22.632Z,12.27
2022-11-17T00:14:50.754Z,11.50
2022-11-17T00:17:19.820Z,13.20
2022-11-17T00:20:05.095Z,13.48
2022-11-17T00:22:32.949Z,9.38
2022-11-17T00:25:00.878Z,8.23
2022-11-17T00:27:28.644Z,9.18
2022-11-17T00:29:56.963Z,8.65
2022-11-17T00:32:43.679Z,7.50
2022-11-17T00:35:11.365Z,9.05
2022-11-17T00:38:02.102Z,9.40
2022-11-17T00:40:29.914Z,12.73
2022-11-17T00:42:57.715Z,6.50
2022-11-17T00:45:25.461Z,6.07
2022-11-17T00:47:54.518Z,8.68
2022-11-17T00:50:22.183Z,7.00
2022-11-17T00:52:49.869Z,5.57
2022-11-17T00:55:17.792Z,6.38
2022-11-17T00:57:45.740Z,5.22
2022-11-17T01:00:14.142Z,5.28
2022-11-17T01:02:41.872Z,5.63
2022-11-17T01:05:10.975Z,4.97
2022-11-17T01:07:38.689Z,6.50
2022-11-17T01:10:07.435Z,6.53
2022-11-17T01:12:35.159Z,4.20
2022-11-17T01:15:02.957Z,6.80
2022-11-17T01:17:30.673Z,6.53
2022-11-17T01:19:58.547Z,9.57
2022-11-17T01:22:27.717Z,8.98
2022-11-17T01:24:55.522Z,8.32
2022-11-17T01:27:23.277Z,8.23
2022-11-17T01:29:51.015Z,7.70
2022-11-17T01:32:18.692Z,12.93
2022-11-17T01:34:47.292Z,6.05
2022-11-17T01:37:20.674Z,6.68
2022-11-17T01:39:50.177Z,5.85
2022-11-17T01:42:20.082Z,5.63
2022-11-17T01:45:02.300Z,4.47
2022-11-17T01:47:36.426Z,7.03
2022-11-17T01:50:09.159Z,7.95
2022-11-17T01:52:40.901Z,6.05
2022-11-17T01:55:11.975Z,8.70
2022-11-17T01:57:45.783Z,11.52
2022-11-17T02:00:14.399Z,7.85
2022-11-17T02:02:44.476Z,5.22
2022-11-17T02:05:23.635Z,9.10
2022-11-17T02:07:55.273Z,6.07
2022-11-17T02:10:24.374Z,10.70
2022-11-17T02:12:54.404Z,7.03
2022-11-17T02:15:22.208Z,5.35
2022-11-17T02:17:51.675Z,6.35
2022-11-17T02:20:31.627Z,6.15
2022-11-17T02:23:41.003Z,7.25
2022-11-17T02:26:40.759Z,5.88
2022-11-17T02:29:18.850Z,9.68
2022-11-17T02:31:55.133Z,7.13
2022-11-17T02:34:34.198Z,10.38
2022-11-17T02:37:10.072Z,7.72
2022-11-17T02:39:42.373Z,9.55
2022-11-17T02:42:14.991Z,4.97
2022-11-17T02:44:49.841Z,6.88
2022-11-17T02:47:21.552Z,4.38
2022-11-17T02:49:53.855Z,4.85
2022-11-17T02:52:22.352Z,7.47
2022-11-17T02:54:50.102Z,8.93
2022-11-17T02:57:30.952Z,5.43
2022-11-17T03:00:02.818Z,3.83
2022-11-17T03:02:45.288Z,8.50
2022-11-17T03:05:17.912Z,7.30
2022-11-17T03:07:59.944Z,9.63
2022-11-17T03:10:31.928Z,4.03
2022-11-17T03:13:03.361Z,5.70
2022-11-17T03:15:42.001Z,5.82
2022-11-17T03:18:18.907Z,6.30
2022-11-17T03:20:56.650Z,5.32
2022-11-17T03:23:31.863Z,6.03
2022-11-17T03:26:02.492Z,5.10
2022-11-17T03:28:33.018Z,5.43
2022-11-17T03:31:06.500Z,4.22
2022-11-17T03:33:36.170Z,4.88
2022-11-17T03:36:08.506Z,6.05
2022-11-17T03:38:40.389Z,4.88
2022-11-17T03:41:11.798Z,6.03
2022-11-17T03:43:41.607Z,4.65
2022-11-17T03:46:14.315Z,4.72
2022-11-17T03:48:46.196Z,4.43
2022-11-17T03:51:16.732Z,5.28
2022-11-17T03:53:46.193Z,5.03
2022-11-17T03:56:27.691Z,4.78
2022-11-17T03:58:58.680Z,5.05
2022-11-17T04:01:30.465Z,3.92
2022-11-17T04:03:58.320Z,6.20
2022-11-17T04:06:26.180Z,5.88
2022-11-17T04:08:53.918Z,5.55
2022-11-17T04:11:39.074Z,8.07
2022-11-17T04:14:24.444Z,6.95
2022-11-17T04:16:53.552Z,3.70
2022-11-17T04:19:21.250Z,10.38
2022-11-17T04:21:48.985Z,5.15
2022-11-17T04:24:16.710Z,9.77
2022-11-17T04:27:01.996Z,4.10
2022-11-17T04:29:29.784Z,8.00
2022-11-17T04:31:58.874Z,4.85
2022-11-17T04:34:26.918Z,7.88
2022-11-17T04:36:54.648Z,3.80
2022-11-17T04:39:22.468Z,7.20
2022-11-17T04:41:56.831Z,5.57
2022-11-17T04:44:26.273Z,5.70
2022-11-17T04:46:54.549Z,5.65
2022-11-17T04:49:24.744Z,7.18
2022-11-17T04:51:53.239Z,4.30
2022-11-17T04:54:23.673Z,5.45
2022-11-17T04:56:52.426Z,4.93
2022-11-17T04:59:20.124Z,6.13
2022-11-17T05:01:48.632Z,5.03
2022-11-17T05:04:39.280Z,5.25
2022-11-17T05:07:11.789Z,7.07
2022-11-17T05:09:39.533Z,6.72
2022-11-17T05:12:25.063Z,4.55
2022-11-17T05:14:52.793Z,8.00
2022-11-17T05:17:19.471Z,6.32
2022-11-17T05:19:48.690Z,10.25
2022-11-17T05:22:37.165Z,5.82
2022-11-17T05:25:06.346Z,6.70
2022-11-17T05:27:34.997Z,4.95
2022-11-17T05:30:03.562Z,6.43
2022-11-17T05:32:31.371Z,6.15
2022-11-17T05:34:59.106Z,5.88
2022-11-17T05:37:28.123Z,7.72
2022-11-17T05:39:55.834Z,7.80
2022-11-17T05:42:23.782Z,5.50
2022-11-17T05:44:51.460Z,17.43
2022-11-17T05:47:19.186Z,9.80
2022-11-17T05:49:46.997Z,10.55
2022-11-17T05:52:14.702Z,8.30
2022-11-17T05:54:43.731Z,9.20
2022-11-17T05:57:17.164Z,7.40
2022-11-17T05:59:47.535Z,9.30
2022-11-17T06:02:19.055Z,6.88
2022-11-17T06:04:49.625Z,7.50
2022-11-17T06:07:18.562Z,8.57
2022-11-17T06:09:48.161Z,8.13
2022-11-17T06:12:16.363Z,4.57
2022-11-17T06:14:44.133Z,7.05
2022-11-17T06:17:22.204Z,7.37
2022-11-17T06:19:56.935Z,4.40
2022-11-17T06:22:26.692Z,10.32
2022-11-17T06:24:56.696Z,4.30
2022-11-17T06:27:25.889Z,4.03
2022-11-17T06:29:55.075Z,5.13
2022-11-17T06:32:24.592Z,4.43
2022-11-17T06:34:55.968Z,3.63
2022-11-17T06:37:24.576Z,2.85
2022-11-17T06:39:52.289Z,4.50
2022-11-17T06:42:41.815Z,2.13
2022-11-17T06:45:11.743Z,2.22
2022-11-17T06:47:39.573Z,3.10
2022-11-17T06:50:08.072Z,4.97
2022-11-17T06:52:35.765Z,5.65
2022-11-17T06:55:03.680Z,3.00
2022-11-17T06:57:32.853Z,3.50
2022-11-17T07:00:00.590Z,5.45
2022-11-17T07:02:28.397Z,4.68
2022-11-17T07:04:56.247Z,4.22
2022-11-17T07:07:24.059Z,2.45
2022-11-17T07:09:51.987Z,2.55
2022-11-17T07:12:19.774Z,7.57
2022-11-17T07:14:48.888Z,4.70
2022-11-17T07:17:16.678Z,6.32
2022-11-17T07:19:44.440Z,3.28
2022-11-17T07:22:12.226Z,4.50
2022-11-17T07:24:39.992Z,2.97
2022-11-17T07:27:08.113Z,5.95
2022-11-17T07:29:35.902Z,3.90
2022-11-17T07:32:05.130Z,8.27
2022-11-17T07:34:32.896Z,4.07
2022-11-17T07:37:00.844Z,7.70
2022-11-17T07:39:28.624Z,6.55
2022-11-17T07:41:56.357Z,10.45
2022-11-17T07:44:24.169Z,8.25
2022-11-17T07:46:52.011Z,6.35
2022-11-17T07:49:21.151Z,5.90
2022-11-17T07:51:48.921Z,3.40
2022-11-17T07:54:16.850Z,3.50
2022-11-17T07:56:44.967Z,16.75
2022-11-17T07:59:15.993Z,11.80
2022-11-17T08:01:47.765Z,4.80
2022-11-17T08:04:15.686Z,8.63
2022-11-17T08:06:45.282Z,9.40
2022-11-17T08:09:15.760Z,3.17
2022-11-17T08:11:44.146Z,6.20
2022-11-17T08:14:12.046Z,5.17
2022-11-17T08:16:39.844Z,4.83
2022-11-17T08:19:07.625Z,5.63
2022-11-17T08:21:37.457Z,3.90
2022-11-17T08:24:07.117Z,1.67
2022-11-17T08:26:34.877Z,4.63
2022-11-17T08:29:02.854Z,4.07
2022-11-17T08:31:30.552Z,6.40
2022-11-17T08:33:58.567Z,4.80
2022-11-17T08:36:26.328Z,7.80
2022-11-17T08:38:54.152Z,3.90
2022-11-17T08:41:23.258Z,9.13
2022-11-17T08:43:51.363Z,1.50
2022-11-17T08:46:19.129Z,3.10
2022-11-17T08:48:49.884Z,2.53
2022-11-17T08:51:20.202Z,2.67
2022-11-17T08:53:47.984Z,1.57
2022-11-17T08:56:15.728Z,5.57
2022-11-17T08:58:46.088Z,2.17
2022-11-17T09:01:16.400Z,2.87
2022-11-17T09:03:45.496Z,5.53
2022-11-17T09:06:15.114Z,5.53
2022-11-17T09:08:55.985Z,4.13
2022-11-17T09:11:25.885Z,3.07
2022-11-17T09:13:55.213Z,2.77
2022-11-17T09:16:24.046Z,2.30
2022-11-17T09:18:55.623Z,3.63
2022-11-17T09:21:23.430Z,1.93
2022-11-17T09:23:51.133Z,2.37
2022-11-17T09:26:19.084Z,3.53
2022-11-17T09:28:47.553Z,3.83
2022-11-17T09:31:19.939Z,3.00
2022-11-17T09:33:47.778Z,3.87
2022-11-17T09:36:17.185Z,5.93
2022-11-17T09:38:46.677Z,3.90
2022-11-17T09:41:23.660Z,4.33
2022-11-17T09:43:58.070Z,4.37
2022-11-17T09:46:33.956Z,1.33
2022-11-17T09:49:11.798Z,4.60
2022-11-17T09:51:43.869Z,2.70
2022-11-17T09:54:19.597Z,1.23
2022-11-17T09:56:48.182Z,2.43
2022-11-17T09:59:20.129Z,2.37
2022-11-17T10:01:49.208Z,2.03
2022-11-17T10:04:18.597Z,5.70
2022-11-17T10:06:48.705Z,3.03
2022-11-17T10:09:25.628Z,1.90
2022-11-17T10:11:55.502Z,4.80
2022-11-17T10:14:23.877Z,1.83
2022-11-17T10:16:55.048Z,3.33
2022-11-17T10:19:25.274Z,2.53
2022-11-17T10:21:56.824Z,4.43
2022-11-17T10:24:35.939Z,2.70
2022-11-17T10:27:05.384Z,3.47
2022-11-17T10:29:35.044Z,6.63
2022-11-17T10:32:09.280Z,6.00
2022-11-17T10:34:41.566Z,4.93
2022-11-17T10:37:27.115Z,1.93
2022-11-17T10:40:19.254Z,4.33
2022-11-17T10:43:00.991Z,6.10
2022-11-17T10:45:29.171Z,5.67
2022-11-17T10:48:12.386Z,7.57
2022-11-17T10:50:53.005Z,3.90
2022-11-17T10:53:27.229Z,3.10
2022-11-17T10:55:58.876Z,5.17
2022-11-17T10:58:28.794Z,3.20
2022-11-17T11:00:59.211Z,3.53
2022-11-17T11:03:31.396Z,3.00
2022-11-17T11:06:02.215Z,4.27
2022-11-17T11:08:41.628Z,3.80
2022-11-17T11:11:19.009Z,3.33
2022-11-17T11:13:54.786Z,6.10
2022-11-17T11:16:22.608Z,5.00
2022-11-17T11:18:54.382Z,3.57
2022-11-17T11:21:37.483Z,4.60
2022-11-17T11:24:16.819Z,2.73
2022-11-17T11:26:52.169Z,2.73
2022-11-17T11:29:34.133Z,2.30
2022-11-17T11:32:16.931Z,1.63
2022-11-17T11:35:17.436Z,6.40
2022-11-17T11:37:55.254Z,3.90
2022-11-17T11:40:27.889Z,8.60
2022-11-17T11:42:59.541Z,4.77
2022-11-17T11:45:43.161Z,8.87
2022-11-17T11:48:21.210Z,7.87
2022-11-17T11:50:55.884Z,7.00
2022-11-17T11:53:29.769Z,5.17
2022-11-17T11:56:10.111Z,5.50
2022-11-17T11:58:44.779Z,7.53
2022-11-17T12:01:14.079Z,7.40
2022-11-17T12:03:49.981Z,7.27
2022-11-17T12:06:41.423Z,4.63
2022-11-17T12:09:32.723Z,3.23
2022-11-17T12:12:01.704Z,5.47
2022-11-17T12:14:31.611Z,4.53
2022-11-17T12:17:06.563Z,14.03
2022-11-17T12:19:51.083Z,7.13
2022-11-17T12:22:40.889Z,2.03
2022-11-17T12:25:18.121Z,9.77
2022-11-17T12:27:48.686Z,9.80
2022-11-17T12:30:54.337Z,5.37
2022-11-17T12:33:22.757Z,4.47
2022-11-17T12:36:30.832Z,8.80
2022-11-17T12:39:01.984Z,3.50
2022-11-17T12:42:07.555Z,3.60
2022-11-17T12:44:52.006Z,5.87
2022-11-17T12:47:21.510Z,8.83
2022-11-17T12:50:02.806Z,8.37
2022-11-17T12:52:39.175Z,12.27
2022-11-17T12:55:18.913Z,8.67
2022-11-17T12:57:51.516Z,6.67
2022-11-17T13:00:23.029Z,8.67
2022-11-17T13:03:10.817Z,2.83
2022-11-17T13:05:38.708Z,8.43
2022-11-17T13:08:21.159Z,9.97
2022-11-17T13:10:51.233Z,15.30
2022-11-17T13:13:20.738Z,6.47
2022-11-17T13:15:52.045Z,6.43
2022-11-17T13:18:30.452Z,8.27
2022-11-17T13:20:59.140Z,6.97
2022-11-17T13:23:28.448Z,9.37
2022-11-17T13:26:22.198Z,6.10
2022-11-17T13:29:03.422Z,10.07
2022-11-17T13:31:31.191Z,5.10
2022-11-17T13:34:04.334Z,7.13
2022-11-17T13:36:32.100Z,3.93
2022-11-17T13:39:01.369Z,4.67
2022-11-17T13:41:38.179Z,4.33
2022-11-17T13:44:08.667Z,8.70
2022-11-17T13:46:36.904Z,7.80
2022-11-17T13:49:31.156Z,6.50
2022-11-17T13:51:59.027Z,6.60
2022-11-17T13:54:26.855Z,5.47
2022-11-17T13:56:58.222Z,9.13
2022-11-17T13:59:28.603Z,6.57
2022-11-17T14:02:30.452Z,10.30
2022-11-17T14:05:21.769Z,8.10
2022-11-17T14:07:50.888Z,8.20
2022-11-17T14:10:34.299Z,6.30
2022-11-17T14:13:30.854Z,10.80
2022-11-17T14:16:00.848Z,10.17
2022-11-17T14:18:36.775Z,8.30
2022-11-17T14:21:10.159Z,9.37
2022-11-17T14:23:38.648Z,9.30
2022-11-17T14:26:07.331Z,10.73
2022-11-17T14:28:36.495Z,14.43
2022-11-17T14:31:04.216Z,16.73
2022-11-17T14:33:31.963Z,11.10
2022-11-17T14:36:00.680Z,9.97
2022-11-17T14:38:28.629Z,7.97
2022-11-17T14:40:56.355Z,11.37
2022-11-17T14:43:24.993Z,8.00
2022-11-17T14:45:54.161Z,6.43
2022-11-17T14:48:22.405Z,12.40
2022-11-17T14:50:56.236Z,8.77
2022-11-17T14:53:24.193Z,10.30
2022-11-17T14:55:52.170Z,9.00
2022-11-17T14:58:21.164Z,14.93
2022-11-17T15:00:49.365Z,15.73
2022-11-17T15:03:18.507Z,9.50
2022-11-17T15:05:56.028Z,13.27
2022-11-17T15:08:23.808Z,9.73
2022-11-17T15:10:52.401Z,10.80
2022-11-17T15:13:20.656Z,7.83
2022-11-17T15:15:48.380Z,11.17
2022-11-17T15:18:16.071Z,11.70
2022-11-17T15:20:45.252Z,13.30
2022-11-17T15:23:13.019Z,11.10
2022-11-17T15:25:40.717Z,8.03
2022-11-17T15:28:08.773Z,10.97
2022-11-17T15:30:36.534Z,9.93
2022-11-17T15:33:04.335Z,15.97
2022-11-17T15:35:32.271Z,9.00
2022-11-17T15:38:01.355Z,8.93
2022-11-17T15:40:29.284Z,14.60
2022-11-17T15:42:57.095Z,10.40
2022-11-17T15:45:25.196Z,8.83
2022-11-17T15:47:53.575Z,10.13
2022-11-17T15:50:21.366Z,6.23
2022-11-17T15:53:03.622Z,9.43
2022-11-17T15:55:35.097Z,10.20
2022-11-17T15:58:02.735Z,11.83
2022-11-17T16:00:33.134Z,11.67
2022-11-17T16:03:01.062Z,14.87
2022-11-17T16:05:28.898Z,13.87
2022-11-17T16:07:56.603Z,9.43
2022-11-17T16:10:24.330Z,11.30
2022-11-17T16:12:53.451Z,9.13
2022-11-17T16:15:21.256Z,8.50
2022-11-17T16:17:49.013Z,10.83
2022-11-17T16:20:18.687Z,8.10
2022-11-17T16:22:46.479Z,8.63
2022-11-17T16:25:15.732Z,13.63
2022-11-17T16:27:43.452Z,11.77
2022-11-17T16:30:14.180Z,6.37
2022-11-17T16:32:41.882Z,12.93
2022-11-17T16:35:09.943Z,11.30
2022-11-17T16:37:37.762Z,9.10
2022-11-17T16:40:06.347Z,12.60
2022-11-17T16:42:34.130Z,11.43
2022-11-17T16:45:01.944Z,13.47
2022-11-17T16:47:31.157Z,14.70
2022-11-17T16:49:59.066Z,14.90
2022-11-17T16:52:26.843Z,18.77
2022-11-17T16:54:54.751Z,10.47
2022-11-17T16:57:22.719Z,11.83
2022-11-17T16:59:50.545Z,15.50
2022-11-17T17:02:18.338Z,19.57
2022-11-17T17:04:47.625Z,9.07
2022-11-17T17:07:16.176Z,9.20
2022-11-17T17:09:44.146Z,6.90
2022-11-17T17:12:13.019Z,6.90
2022-11-17T17:14:40.832Z,7.87
2022-11-17T17:17:08.719Z,8.73
2022-11-17T17:19:36.553Z,14.10
2022-11-17T17:22:05.741Z,14.40
2022-11-17T17:24:34.753Z,14.17
2022-11-17T17:27:03.811Z,8.50
2022-11-17T17:29:31.686Z,15.37
2022-11-17T17:31:59.534Z,16.87
2022-11-17T17:34:27.442Z,13.60
2022-11-17T17:36:55.214Z,14.23
2022-11-17T17:39:24.467Z,12.47
2022-11-17T17:41:52.318Z,14.07
2022-11-17T17:44:20.830Z,16.90
2022-11-17T17:46:49.541Z,13.03
2022-11-17T17:49:19.000Z,14.80
2022-11-17T17:51:47.317Z,14.17
2022-11-17T17:54:17.747Z,8.63
2022-11-17T17:56:47.394Z,15.00
2022-11-17T17:59:16.153Z,13.20
2022-11-17T18:01:46.101Z,13.30
2022-11-17T18:04:16.242Z,8.30
2022-11-17T18:06:47.366Z,11.97
2022-11-17T18:09:19.037Z,12.90
2022-11-17T18:11:50.653Z,16.10
2022-11-17T18:14:22.477Z,12.40
2022-11-17T18:16:51.007Z,12.10
2022-11-17T18:19:19.572Z,11.07
2022-11-17T18:21:47.562Z,9.20
2022-11-17T18:24:15.323Z,14.50
2022-11-17T18:26:48.169Z,8.00
2022-11-17T18:29:18.493Z,2.87
2022-11-17T18:31:47.714Z,6.57
2022-11-17T18:34:16.916Z,4.17
2022-11-17T18:36:45.207Z,6.83
2022-11-17T18:39:15.129Z,4.57
2022-11-17T18:41:43.634Z,5.47
2022-11-17T18:44:14.702Z,8.20
2022-11-17T18:46:42.620Z,4.80
2022-11-17T18:49:10.609Z,4.77
2022-11-17T18:51:39.073Z,3.40
2022-11-17T18:54:07.581Z,7.80
2022-11-17T18:56:37.364Z,7.23
2022-11-17T18:59:11.221Z,10.13
2022-11-17T19:01:41.469Z,7.67
2022-11-17T19:04:09.768Z,5.03
2022-11-17T19:06:37.541Z,6.90
2022-11-17T19:09:06.008Z,7.37
2022-11-17T19:11:34.842Z,7.50
2022-11-17T19:14:04.175Z,5.77
2022-11-17T19:16:33.142Z,16.67
2022-11-17T19:19:02.177Z,15.23
2022-11-17T19:21:31.695Z,6.77
2022-11-17T19:24:02.470Z,15.30
2022-11-17T19:26:31.510Z,8.40
2022-11-17T19:29:00.988Z,5.70
2022-11-17T19:31:29.294Z,9.93
2022-11-17T19:33:58.020Z,5.87
2022-11-17T19:36:29.666Z,3.90
2022-11-17T19:38:59.107Z,3.00
2022-11-17T19:41:28.802Z,4.77
2022-11-17T19:43:57.982Z,5.30
2022-11-17T19:46:27.541Z,5.83
2022-11-17T19:48:55.972Z,4.93
2022-11-17T19:51:26.091Z,4.40
2022-11-17T19:53:56.974Z,2.30
2022-11-17T19:56:26.419Z,4.87
2022-11-17T19:58:55.231Z,4.87
2022-11-17T20:01:25.073Z,3.10
2022-11-17T20:03:53.882Z,4.03
2022-11-17T20:06:23.981Z,1.80
2022-11-17T20:08:51.906Z,3.15
2022-11-17T20:11:22.917Z,2.28
2022-11-17T20:13:50.801Z,2.13
2022-11-17T20:16:20.461Z,2.27
2022-11-17T20:18:50.936Z,1.60
2022-11-17T20:21:19.825Z,3.95
2022-11-17T20:23:47.671Z,3.13
2022-11-17T20:26:17.258Z,3.28
2022-11-17T20:28:46.380Z,4.00
2022-11-17T20:31:16.653Z,2.58
2022-11-17T20:33:44.722Z,1.10
2022-11-17T20:36:14.718Z,1.92
2022-11-17T20:38:42.420Z,1.60
2022-11-17T20:41:10.472Z,2.08
2022-11-17T20:43:38.660Z,1.50
2022-11-17T20:46:07.874Z,2.85
2022-11-17T20:48:36.306Z,1.60
2022-11-17T20:51:05.823Z,1.58
2022-11-17T20:53:33.972Z,1.83
2022-11-17T20:56:02.924Z,2.03
2022-11-17T20:58:31.092Z,5.38
2022-11-17T21:00:59.272Z,1.90
2022-11-17T21:03:28.491Z,1.58
2022-11-17T21:05:59.249Z,1.80
2022-11-17T21:08:30.113Z,1.35
2022-11-17T21:10:58.950Z,1.85
2022-11-17T21:13:26.926Z,2.38
2022-11-17T21:16:09.052Z,1.02
2022-11-17T21:18:39.939Z,1.23
2022-11-17T21:21:09.601Z,1.33
2022-11-17T21:23:38.283Z,1.35
2022-11-17T21:26:06.946Z,1.80
2022-11-17T21:28:34.831Z,1.77
2022-11-17T21:31:07.981Z,2.45
2022-11-17T21:33:36.134Z,6.00
2022-11-17T21:36:06.776Z,1.92
2022-11-17T21:38:34.499Z,1.77
2022-11-17T21:41:03.712Z,1.77
2022-11-17T21:43:31.764Z,2.33
2022-11-17T21:46:03.269Z,2.97
2022-11-17T21:48:31.083Z,3.35
2022-11-17T21:50:58.787Z,3.17
2022-11-17T21:53:28.220Z,1.92
2022-11-17T21:56:01.599Z,2.53
2022-11-17T21:58:29.519Z,2.25
2022-11-17T22:00:57.321Z,1.77
2022-11-17T22:03:25.278Z,4.57
2022-11-17T22:05:56.785Z,2.22
2022-11-17T22:08:28.608Z,2.78
2022-11-17T22:10:56.347Z,2.25
2022-11-17T22:13:24.054Z,2.25
2022-11-17T22:15:51.713Z,1.60
2022-11-17T22:18:19.439Z,2.70
2022-11-17T22:20:51.707Z,2.42
2022-11-17T22:23:19.624Z,1.50
2022-11-17T22:25:55.374Z,1.52
2022-11-17T22:28:23.875Z,4.45
2022-11-17T22:30:52.702Z,2.15
2022-11-17T22:33:20.562Z,1.50
2022-11-17T22:35:48.589Z,1.98
2022-11-17T22:38:17.080Z,5.28
2022-11-17T22:40:45.027Z,1.95
2022-11-17T22:43:15.550Z,1.88
2022-11-17T22:45:43.746Z,2.22
2022-11-17T22:48:11.586Z,3.63
2022-11-17T22:50:39.530Z,2.55
2022-11-17T22:53:07.359Z,1.33
2022-11-17T22:55:36.196Z,1.27
2022-11-17T22:58:04.659Z,2.08
2022-11-17T23:00:33.843Z,2.15
2022-11-17T23:03:01.585Z,1.15
2022-11-17T23:05:29.283Z,0.95
2022-11-17T23:07:56.977Z,1.33
2022-11-17T23:10:24.724Z,1.88
2022-11-17T23:12:52.434Z,1.83
2022-11-17T23:15:20.182Z,1.00
2022-11-17T23:17:49.848Z,1.00
2022-11-17T23:20:17.746Z,2.25
2022-11-17T23:22:45.401Z,1.48
2022-11-17T23:25:13.137Z,2.30
2022-11-17T23:27:40.926Z,2.08
2022-11-17T23:30:09.432Z,1.58
2022-11-17T23:32:37.202Z,1.60
2022-11-17T23:35:07.117Z,2.05
2022-11-17T23:37:34.917Z,2.60
2022-11-17T23:40:02.782Z,1.40
2022-11-17T23:42:32.573Z,3.83
2022-11-17T23:45:01.840Z,2.03
2022-11-17T23:47:30.111Z,1.60
2022-11-17T23:49:57.791Z,1.75
2022-11-17T23:52:26.966Z,1.30
2022-11-17T23:54:54.691Z,1.70
2022-11-17T23:57:22.486Z,2.55
2022-11-17T23:59:50.192Z,1.20
